Latest Weather Observations for Geelong Racecourse

IDV60801

Issued at 1:32 pm EST Saturday 23 September 2017 (issued every 30 minutes, with the page automatically refreshed every 10 minutes)

About weather observations | Map of weather stations | Latest weather observations for VIC | Other Formats
Station Details ID: 087184 Name: GEELONG RACECOURSE Lat: -38.17 Lon: 144.38 Height: 12.9 m
Data from the previous 72 hours. | See also: Recent months at Geelong Racecourse
Date/Time
EST
Temp
°C
App
Temp
°C
Dew
Point
°C
Rel
Hum
%
Delta-T
°C
Wind Press
QNH
hPa
Press
MSL
hPa
Rain since
9am
mm
Dir  Spd
km/h
Gust
km/h
Spd
kts
Gust
kts
23/01:30pm 19.7 18.4 13.6 68 3.5 S 13 19 7 10 990.5 990.5 0.0
23/01:00pm 19.4 17.1 11.9 62 4.2 S 15 20 8 11 991.0 991.0 0.0
23/12:30pm 19.9 17.4 12.4 62 4.2 SSE 17 24 9 13 991.7 991.7 0.0
23/12:00pm 18.8 16.4 13.9 73 2.8 S 19 24 10 13 992.6 992.6 0.0
23/11:30am 18.6 16.0 13.7 73 2.8 S 20 32 11 17 993.6 993.6 0.0
23/11:00am 18.6 14.8 13.5 72 2.9 S 26 37 14 20 994.8 994.8 0.0
23/10:30am 19.3 16.1 13.0 67 3.6 S 22 35 12 19 995.9 995.9 0.0
23/10:00am 19.3 16.6 11.8 62 4.2 S 17 24 9 13 995.8 995.8 0.0
23/09:30am 20.8 19.7 10.6 52 5.6 SSE 7 13 4 7 996.6 996.6 0.0
23/09:00am 19.3 17.7 10.3 56 4.9 SSE 9 17 5 9 997.0 997.0 0.0
23/08:30am 18.1 16.8 11.4 65 3.7 SSW 9 13 5 7 997.9 997.9 0.0
23/08:00am 16.5 15.6 11.2 71 2.9 S 7 13 4 7 998.2 998.2 0.0
23/07:30am 14.1 12.5 12.8 92 0.7 SW 13 20 7 11 998.7 998.7 0.0
23/07:00am 12.7 12.4 11.6 93 0.6 W 4 6 2 3 997.9 997.9 0.0
23/06:30am 12.2 11.4 11.1 93 0.6 SW 6 7 3 4 997.5 997.5 0.0
23/06:00am 12.3 12.7 11.2 93 0.6 CALM 0 0 0 0 997.0 997.0 0.0
23/05:30am 12.9 12.3 11.8 93 0.6 NNE 6 7 3 4 997.4 997.4 0.0
23/05:00am 11.3 11.0 10.2 93 0.6 SW 2 4 1 2 997.1 997.1 0.0
23/04:30am 11.8 11.7 10.7 93 0.6 NNE 2 7 1 4 997.1 997.1 0.0
23/04:00am 12.3 12.3 11.2 93 0.6 SSW 2 9 1 5 998.2 998.2 0.0
23/03:30am 13.4 13.3 10.8 84 1.4 SSW 2 4 1 2 998.9 998.9 0.0
23/03:00am 15.2 14.5 10.2 72 2.6 E 4 6 2 3 999.7 999.7 0.0
23/02:30am 15.8 15.1 10.1 69 3.0 NNE 4 9 2 5 1000.5 1000.5 0.0
23/02:00am 16.1 13.6 9.8 66 3.3 NE 13 19 7 10 1000.6 1000.6 0.0
23/01:30am 16.4 14.9 10.7 69 3.0 NNE 9 13 5 7 1001.2 1001.2 0.0
23/01:00am 16.2 14.6 11.4 73 2.6 NE 11 17 6 9 1001.5 1001.5 0.0
23/12:30am 15.5 14.3 12.8 84 1.5 NE 11 19 6 10 1002.1 1002.1 0.0
23/12:00am 15.5 14.1 12.3 81 1.8 NE 11 17 6 9 1002.6 1002.6 0.0
 
Date/Time
EST
Temp
°C
App
Temp
°C
Dew
Point
°C
Rel
Hum
%
Delta-T
°C
Wind Press
QNH
hPa
Press
MSL
hPa
Rain since
9am
mm
Dir  Spd
km/h
Gust
km/h
Spd
kts
Gust
kts
22/11:30pm 15.3 14.4 12.6 84 1.5 NE 9 13 5 7 1003.0 1003.0 0.0
22/11:00pm 14.8 14.6 13.5 92 0.7 NE 7 9 4 5 1003.4 1003.4 0.0
22/10:30pm 14.8 15.0 13.0 89 1.0 NNE 4 6 2 3 1003.7 1003.7 0.0
22/10:00pm 15.1 15.4 13.3 89 1.0 N 4 7 2 4 1003.8 1003.8 0.0
22/09:30pm 14.8 14.6 13.5 92 0.7 NE 7 9 4 5 1003.9 1003.9 0.0
22/09:00pm 14.8 14.8 13.5 92 0.7 NE 6 11 3 6 1004.4 1004.4 0.0
22/08:30pm 15.4 15.2 11.8 79 1.9 NNE 4 4 2 2 1004.8 1004.8 0.0
22/08:00pm 16.0 15.2 11.2 73 2.6 NNE 6 9 3 5 1005.0 1005.0 0.0
22/07:30pm 15.8 15.8 11.2 74 2.5 N 2 4 1 2 1004.8 1004.8 0.0
22/07:00pm 17.1 16.4 12.0 72 2.8 NNE 7 9 4 5 1004.8 1004.8 0.0
22/06:30pm 18.2 17.7 12.0 67 3.4 NNE 6 9 3 5 1004.6 1004.6 0.0
22/06:00pm 19.2 19.3 11.5 61 4.2 NE 2 6 1 3 1004.6 1004.6 0.0
22/05:30pm 19.6 19.1 12.1 62 4.2 NNE 6 7 3 4 1004.8 1004.8 0.0
22/05:00pm 20.1 19.5 11.8 59 4.6 NNE 6 9 3 5 1004.7 1004.7 0.0
22/04:30pm 20.3 19.4 11.2 56 5.0 NE 7 11 4 6 1004.7 1004.7 0.0
22/04:00pm 21.3 20.4 11.3 53 5.6 NNE 7 11 4 6 1005.0 1005.0 0.0
22/03:30pm 21.2 20.1 12.1 56 5.1 NNE 9 11 5 6 1005.0 1005.0 0.0
22/03:00pm 20.7 20.0 11.3 55 5.2 NE 6 9 3 5 1005.2 1005.2 0.0
22/02:30pm 22.5 23.0 12.7 54 5.6 NW 2 4 1 2 1005.4 1005.4 0.0
22/02:00pm 20.5 20.0 12.2 59 4.7 NNE 6 9 3 5 1005.7 1005.7 0.0
22/01:30pm 19.8 19.5 12.6 63 4.0 NE 6 9 3 5 1006.1 1006.1 0.0
22/01:00pm 19.4 19.0 13.1 67 3.6 NNE 7 11 4 6 1006.6 1006.6 0.0
22/12:30pm 18.5 18.2 13.4 72 2.9 NE 7 13 4 7 1007.1 1007.1 0.0
22/12:00pm 17.1 16.6 12.6 75 2.5 ENE 7 13 4 7 1007.8 1007.8 0.0
22/11:30am 16.4 15.1 12.4 77 2.2 ENE 11 17 6 9 1008.0 1008.0 0.0
22/11:00am 16.0 14.3 12.6 80 1.9 ENE 13 19 7 10 1008.4 1008.4 0.0
22/10:30am 15.7 14.6 13.0 84 1.5 NE 11 17 6 9 1009.0 1009.0 0.0
22/10:00am 15.5 14.4 13.2 86 1.3 NE 11 17 6 9 1009.2 1009.2 0.0
22/09:30am 15.3 14.9 14.0 92 0.7 NE 9 15 5 8 1009.3 1009.3 0.0
22/09:00am 14.6 13.9 13.3 92 0.7 NNE 9 15 5 8 1009.6 1009.6 0.0
22/08:30am 13.9 13.1 13.0 94 0.5 NE 9 17 5 9 1009.4 1009.4 0.0
22/08:00am 11.9 12.3 11.3 96 0.3 CALM 0 0 0 0 1009.4 1009.4 0.0
22/07:30am 11.6 11.6 11.0 96 0.3 ENE 2 4 1 2 1009.6 1009.6 0.0
22/07:00am 10.6 10.7 10.0 96 0.3 CALM 0 0 0 0 1009.7 1009.7 0.0
22/06:30am 10.2 10.1 9.6 96 0.3 CALM 0 0 0 0 1009.6 1009.6 0.0
22/06:00am 10.0 9.9 9.4 96 0.3 CALM 0 6 0 3 1009.7 1009.7 0.0
22/05:30am 9.6 9.3 8.8 95 0.4 CALM 0 0 0 0 1009.9 1009.9 0.0
22/05:00am 9.4 9.1 8.6 95 0.4 CALM 0 0 0 0 1009.8 1009.8 0.0
22/04:30am 9.3 8.2 8.5 95 0.4 N 4 6 2 3 1009.7 1009.7 0.0
22/04:00am 10.4 9.9 9.5 94 0.5 N 2 2 1 1 1009.8 1009.8 0.0
22/03:30am 10.7 9.9 9.8 94 0.5 N 4 6 2 3 1009.9 1009.9 0.0
22/03:00am 11.4 11.2 10.3 93 0.6 ENE 2 4 1 2 1010.0 1010.0 0.0
22/02:30am 11.7 11.9 10.6 93 0.6 CALM 0 0 0 0 1010.5 1010.5 0.0
22/02:00am 11.9 12.2 10.8 93 0.6 CALM 0 0 0 0 1011.0 1011.0 0.0
22/01:30am 11.9 12.2 10.8 93 0.6 CALM 0 2 0 1 1011.6 1011.6 0.0
22/01:00am 12.2 12.6 11.1 93 0.6 CALM 0 0 0 0 1011.8 1011.8 0.0
22/12:30am 12.1 12.5 11.2 94 0.5 CALM 0 0 0 0 1011.8 1011.8 0.0
22/12:00am 12.2 12.2 11.3 94 0.5 NE 2 2 1 1 1011.9 1011.9 0.0
 
Date/Time
EST
Temp
°C
App
Temp
°C
Dew
Point
°C
Rel
Hum
%
Delta-T
°C
Wind Press
QNH
hPa
Press
MSL
hPa
Rain since
9am
mm
Dir  Spd
km/h
Gust
km/h
Spd
kts
Gust
kts
21/11:30pm 12.3 12.4 11.4 94 0.5 NE 2 4 1 2 1012.0 1012.0 0.0
21/11:00pm 11.9 12.2 11.0 94 0.5 CALM 0 0 0 0 1012.1 1012.1 0.0
21/10:30pm 12.1 12.1 11.0 93 0.6 E 2 4 1 2 1012.2 1012.2 0.0
21/10:00pm 12.6 12.7 11.5 93 0.6 ESE 2 6 1 3 1011.9 1011.9 0.0
21/09:30pm 12.7 12.4 11.6 93 0.6 W 4 7 2 4 1011.7 1011.7 0.0
21/09:00pm 13.1 12.4 12.0 93 0.6 W 7 11 4 6 1011.3 1011.3 0.0
21/08:30pm 13.8 12.9 12.7 93 0.6 W 9 13 5 7 1011.1 1011.1 0.0
21/08:00pm 13.5 14.3 12.4 93 0.6 CALM 0 0 0 0 1010.6 1010.6 0.0
21/07:30pm 13.5 12.9 12.4 93 0.6 SW 7 11 4 6 1009.9 1009.9 0.0
21/07:00pm 13.7 12.8 12.6 93 0.6 S 9 11 5 6 1009.3 1009.3 0.0
21/06:30pm 14.0 12.4 12.9 93 0.6 S 13 19 7 10 1008.7 1008.7 0.0
21/06:00pm 17.2 14.5 9.1 59 4.2 SW 13 19 7 10 1008.3 1008.3 0.0
21/05:30pm 18.3 15.4 8.3 52 5.1 WSW 13 22 7 12 1008.1 1008.1 0.0
21/05:00pm 19.1 15.2 6.9 45 6.2 W 17 26 9 14 1007.7 1007.7 0.0
21/04:30pm 19.9 15.4 6.3 41 6.8 W 19 28 10 15 1007.5 1007.5 0.0
21/04:00pm 20.9 15.2 4.9 35 7.9 W 24 35 13 19 1007.1 1007.1 0.0
21/03:30pm 22.3 15.9 5.3 33 8.5 NW 28 43 15 23 1006.9 1006.9 0.0
21/03:00pm 22.6 15.9 5.5 33 8.6 NW 30 46 16 25 1006.9 1006.9 0.0
21/02:54pm 23.0 16.7 5.9 33 8.7 NW 28 46 15 25 1007.1 1007.1 0.0
21/02:30pm 22.9 17.4 5.8 33 8.6 NW 24 37 13 20 1007.0 1007.0 0.0
21/02:00pm 22.3 16.2 4.8 32 8.7 NW 26 39 14 21 1007.0 1007.0 0.0
21/01:30pm 22.0 17.8 5.8 35 8.1 NW 17 28 9 15 1007.0 1007.0 0.0
21/01:00pm 21.9 15.6 3.6 30 8.8 NW 26 44 14 24 1007.2 1007.2 0.0
21/12:51pm 22.1 15.2 2.8 28 9.2 NW 28 50 15 27 1007.1 1007.1 0.0
21/12:30pm 22.5 16.5 3.6 29 9.1 NNW 24 37 13 20 1007.4 1007.4 0.0
21/12:00pm 21.8 15.6 4.4 32 8.5 N 26 37 14 20 1007.7 1007.7 0.0
21/11:30am 21.8 16.6 5.7 35 8.1 N 22 33 12 18 1007.6 1007.6 0.0
21/11:00am 21.3 16.9 4.8 34 8.1 N 17 32 9 17 1008.0 1008.0 0.0
21/10:30am 18.0 13.7 7.7 51 5.2 ENE 20 30 11 16 1008.5 1008.5 0.0
21/10:00am 16.1 11.5 6.5 53 4.7 NNE 20 28 11 15 1009.5 1009.5 0.0
21/09:30am 14.4 9.6 5.7 56 4.1 NNE 20 30 11 16 1009.9 1009.9 0.0
21/09:00am 13.9 9.9 6.7 62 3.5 NE 17 24 9 13 1010.1 1010.1 0.0
21/08:30am 12.9 8.9 6.5 65 3.1 NE 17 26 9 14 1010.4 1010.4 0.0
21/08:00am 12.6 8.3 7.1 69 2.7 NNE 19 26 10 14 1010.9 1010.9 0.0
21/07:30am 12.4 8.1 7.1 70 2.6 NNE 19 32 10 17 1010.9 1010.9 0.0
21/07:00am 12.4 8.0 6.7 68 2.7 NNE 19 28 10 15 1011.5 1011.5 0.0
21/06:30am 12.4 8.0 6.7 68 2.7 NNE 19 28 10 15 1011.5 1011.5 0.0
21/06:00am 12.2 9.5 7.5 73 2.3 N 11 20 6 11 1011.1 1011.1 0.0
21/05:30am 12.0 9.0 7.5 74 2.2 NE 13 20 7 11 1010.9 1010.9 0.0
21/05:00am 12.1 8.3 7.6 74 2.2 NNE 17 26 9 14 1011.1 1011.1 0.0
21/04:30am 12.2 8.8 7.7 74 2.2 NE 15 24 8 13 1011.2 1011.2 0.0
21/04:00am 12.2 8.8 7.7 74 2.2 NNE 15 24 8 13 1011.1 1011.1 0.0
21/03:30am 11.6 8.6 7.9 78 1.8 NE 13 20 7 11 1011.5 1011.5 0.0
21/03:00am 11.0 8.5 8.4 84 1.3 NE 11 19 6 10 1011.8 1011.8 0.0
21/02:30am 9.8 8.1 8.4 91 0.7 ENE 7 9 4 5 1012.3 1012.3 0.0
21/02:00am 9.3 7.6 7.7 90 0.8 NNE 6 7 3 4 1012.8 1012.8 0.0
21/01:30am 9.7 8.6 8.5 92 0.6 NNE 4 9 2 5 1012.9 1012.9 0.0
21/01:00am 10.6 9.1 9.0 90 0.8 NNE 7 13 4 7 1013.0 1013.0 0.0
21/12:30am 10.8 9.6 9.6 92 0.6 N 6 15 3 8 1013.3 1013.3 0.0
21/12:00am 11.3 9.7 10.2 93 0.6 NNE 9 13 5 7 1013.4 1013.4 0.0
 
Date/Time
EST
Temp
°C
App
Temp
°C
Dew
Point
°C
Rel
Hum
%
Delta-T
°C
Wind Press
QNH
hPa
Press
MSL
hPa
Rain since
9am
mm
Dir  Spd
km/h
Gust
km/h
Spd
kts
Gust
kts
20/11:30pm 11.3 10.0 10.0 92 0.7 NNE 7 11 4 6 1013.9 1013.9 0.0
20/11:00pm 11.2 9.8 8.8 85 1.2 NE 6 9 3 5 1014.5 1014.5 0.0
20/10:30pm 12.0 10.7 7.5 74 2.2 ENE 4 6 2 3 1014.7 1014.7 0.0
20/10:00pm 12.4 11.7 7.1 70 2.6 CALM 0 0 0 0 1015.2 1015.2 0.0
20/09:30pm 12.7 11.1 6.3 65 3.0 NE 4 6 2 3 1015.3 1015.3 0.0
20/09:00pm 14.4 12.6 7.0 61 3.6 N 6 7 3 4 1015.4 1015.4 0.0
20/08:30pm 15.3 12.7 7.6 60 3.8 NNE 11 17 6 9 1014.2 1014.2 0.0
20/08:00pm 14.9 12.2 7.5 61 3.7 N 11 15 6 8 1014.5 1014.5 0.0
20/07:30pm 15.4 13.1 7.4 59 4.0 N 9 13 5 7 1014.4 1014.4 0.0
20/07:00pm 16.0 13.7 7.5 57 4.2 N 9 13 5 7 1014.8 1014.8 0.0
20/06:30pm 16.0 13.3 7.5 57 4.2 NNW 11 17 6 9 1014.6 1014.6 0.0
20/06:00pm 16.4 13.8 7.9 57 4.3 NW 11 17 6 9 1014.6 1014.6 0.0
20/05:30pm 17.7 15.1 7.7 52 5.1 NW 11 19 6 10 1014.6 1014.6 0.0
20/05:00pm 18.0 15.0 7.7 51 5.2 NNW 13 20 7 11 1014.5 1014.5 0.0
20/04:30pm 18.4 15.4 7.5 49 5.5 NNW 13 19 7 10 1014.2 1014.2 0.0
20/04:00pm 18.3 14.9 7.7 50 5.4 NNW 15 24 8 13 1014.1 1014.1 0.0
20/03:30pm 18.2 14.9 7.9 51 5.3 NW 15 22 8 12 1014.6 1014.6 0.0
20/03:00pm 18.4 14.5 6.9 47 5.8 NNW 17 28 9 15 1015.2 1015.2 0.0
20/02:30pm 18.9 14.6 7.0 46 6.0 NNW 19 28 10 15 1015.7 1015.7 0.0
20/02:00pm 18.2 13.6 6.7 47 5.7 NW 20 28 11 15 1016.1 1016.1 0.0

Other Formats:

Comma delimited format used in spreadsheet applications
http://www.bom.gov.au/fwo/IDV60801/IDV60801.94857.axf

JavaScript Object Notation format (JSON) in row-major order
http://www.bom.gov.au/fwo/IDV60801/IDV60801.94857.json